KGKJ

Details ICAO KGKJ
Name PORT MEADVILLE
Region United States
Timezone America/New_York (UTC-5.0)
Plans Departing 2
Arriving 5
Stats Elevation 1,400 ft / 427 m (AMSL)
Location 41.626515° -80.214729°
Runways 1
Magnetic Variation 9.412° W
Sunrise 2017-12-15 12:42:14 UTC / 2017-12-15 07:42:14 Local
Sunset 2017-12-15 21:52:47 UTC / 2017-12-15 16:52:47 Local
Advertisement - Login to hide

Runways

ID Width Length Bearing (true) Bearing (mag) Surface Threshold Offset Overrun Length
07 75 ft / 23 m 4,994 ft / 1,522 m 61.15° 70.56° Asphalt 0 ft / 0 m 0 ft / 0 m
25 75 ft / 23 m 4,994 ft / 1,522 m 241.16° 250.57° Asphalt 0 ft / 0 m 0 ft / 0 m

Map

Weather


0- 5 10 15 20 25 30 35+ Temperature / ° C

Clouds and Precipitation
Forecast for 2017-12-15 12:00 UTC. Updated 2 hours ago

Ground ~20,000 ft ~40,000 ft Winds

METAR

KGKJ 150753Z AUTO 17004KT 10SM SCT030 M12/M13 A2998 RMK AO2 SLP176 T11171128

TAF

Not found

Frequencies

Recorded 121.42 MHz ASOS
Clearance 124.95 MHz CLNC DEL
Unicom 123.00 MHz CTAF/UNICOM
Approach 133.95 MHz YOUNGSTOWN APP/DEP
Warning: Do not use this data for real-world aviation or navigation. No guarantee of current accuracy is given.